CheckWX is a tool to help pilots better visualize weather data.  It is not intended as a substitute for an official pre-flight weather briefing.

21:37:26 UTC

KAVP TAF
Wilkes-Barre / Scranton International Airport
Wilkes-Barre/Scranton, Pennsylvania, USA
KAVP 201737Z 2018/2118 24010KT P6SM FEW250 FM202300 17005KT P6SM SCT200 FM210600 11003KT P6SM OVC060 FM210900 13004KT P6SM OVC025 FM211200 13005KT 3SM -RA BR OVC015 FM211400 13005KT 2SM -RA BR OVC008

Mar-20@
18:00 UTC

Mar-20 @ 18:00 UTC

Mar-20@
23:00 UTC

Mar-20 @ 23:00 UTC

KAVP 201737Z 2018/2118 24010KT P6SM FEW250
Wind
  • 240° at 10 KTS
Cloud Levels
  • Few at 25,000' AGL

Mar-20@
23:00 UTC

Mar-20 @ 23:00 UTC

Mar-21@
06:00 UTC

Mar-21 @ 06:00 UTC

FM202300 17005KT P6SM SCT200

From

From Standard forecast or significant change

Wind
  • 170° at 5 KTS
Cloud Levels
  • Scattered at 20,000' AGL

Mar-21@
06:00 UTC

Mar-21 @ 06:00 UTC

Mar-21@
09:00 UTC

Mar-21 @ 09:00 UTC

FM210600 11003KT P6SM OVC060

From

From Standard forecast or significant change

Wind
  • 110° at 3 KTS
Cloud Levels
  • Overcast at 6,000' AGL

Mar-21@
09:00 UTC

Mar-21 @ 09:00 UTC

Mar-21@
12:00 UTC

Mar-21 @ 12:00 UTC

FM210900 13004KT P6SM OVC025

From

From Standard forecast or significant change

Wind
  • 130° at 4 KTS
Cloud Levels
  • Overcast at 2,500' AGL

Mar-21@
12:00 UTC

Mar-21 @ 12:00 UTC

Mar-21@
14:00 UTC

Mar-21 @ 14:00 UTC

FM211200 13005KT 3SM -RA BR OVC015

From

From Standard forecast or significant change

Wind
  • 130° at 5 KTS
Conditions
Light Rain, Mist
Cloud Levels
  • Overcast at 1,500' AGL

Mar-21@
14:00 UTC

Mar-21 @ 14:00 UTC

Mar-21@
18:00 UTC

Mar-21 @ 18:00 UTC

FM211400 13005KT 2SM -RA BR OVC008

From

From Standard forecast or significant change

Wind
  • 130° at 5 KTS
Conditions
Light Rain, Mist
Cloud Levels
  • Overcast at 800' AGL